createdAt,value
2023-04-27T00:01:24.970Z,1.10
2023-04-27T00:03:51.822Z,1.20
2023-04-27T00:06:18.643Z,0.90
2023-04-27T00:08:45.537Z,0.90
2023-04-27T00:11:12.118Z,0.80
2023-04-27T00:13:38.749Z,1.30
2023-04-27T00:16:05.999Z,1.00
2023-04-27T00:18:33.087Z,1.20
2023-04-27T00:20:59.927Z,0.90
2023-04-27T00:23:26.973Z,1.30
2023-04-27T00:25:53.630Z,1.00
2023-04-27T00:28:20.550Z,1.00
2023-04-27T00:30:48.843Z,1.00
2023-04-27T00:33:17.274Z,1.40
2023-04-27T00:35:43.854Z,1.20
2023-04-27T00:38:11.091Z,0.90
2023-04-27T00:40:38.565Z,1.50
2023-04-27T00:43:05.499Z,1.40
2023-04-27T00:45:32.207Z,1.30
2023-04-27T00:47:59.491Z,1.40
2023-04-27T00:50:30.174Z,1.40
2023-04-27T00:52:57.565Z,1.00
2023-04-27T00:55:24.579Z,1.00
2023-04-27T00:57:51.945Z,1.00
2023-04-27T01:00:18.968Z,1.40
2023-04-27T01:02:46.218Z,0.80
2023-04-27T01:05:13.412Z,1.00
2023-04-27T01:07:40.954Z,1.00
2023-04-27T01:10:08.461Z,1.00
2023-04-27T01:12:35.688Z,1.00
2023-04-27T01:15:06.357Z,1.20
2023-04-27T01:17:33.147Z,1.00
2023-04-27T01:20:00.388Z,1.00
2023-04-27T01:22:27.092Z,1.30
2023-04-27T01:24:54.046Z,1.20
2023-04-27T01:27:21.068Z,0.90
2023-04-27T01:29:47.777Z,1.00
2023-04-27T01:32:14.510Z,0.60
2023-04-27T01:34:41.190Z,0.80
2023-04-27T01:37:07.914Z,0.80
2023-04-27T01:39:34.800Z,0.70
2023-04-27T01:42:03.569Z,0.70
2023-04-27T01:44:30.482Z,0.70
2023-04-27T01:46:57.112Z,0.90
2023-04-27T01:49:23.678Z,0.50
2023-04-27T01:51:50.422Z,0.90
2023-04-27T01:54:17.077Z,1.00
2023-04-27T01:56:43.792Z,0.70
2023-04-27T01:59:11.017Z,0.80
2023-04-27T02:01:37.713Z,0.90
2023-04-27T02:04:05.067Z,1.10
2023-04-27T02:06:32.118Z,0.70
2023-04-27T02:08:59.062Z,0.90
2023-04-27T02:11:26.768Z,0.70
2023-04-27T02:13:54.543Z,0.70
2023-04-27T02:16:31.194Z,0.70
2023-04-27T02:18:59.009Z,1.00
2023-04-27T02:21:25.672Z,0.70
2023-04-27T02:23:52.268Z,0.90
2023-04-27T02:26:20.538Z,0.70
2023-04-27T02:28:50.266Z,0.90
2023-04-27T02:31:17.416Z,1.00
2023-04-27T02:33:46.019Z,0.80
2023-04-27T02:36:12.593Z,0.90
2023-04-27T02:38:39.186Z,1.00
2023-04-27T02:41:05.882Z,0.80
2023-04-27T02:43:34.187Z,1.00
2023-04-27T02:46:04.794Z,0.70
2023-04-27T02:48:31.738Z,0.80
2023-04-27T02:50:58.437Z,1.10
2023-04-27T02:53:25.134Z,1.00
2023-04-27T02:55:51.736Z,0.80
2023-04-27T02:58:18.432Z,1.00
2023-04-27T03:00:45.769Z,0.90
2023-04-27T03:03:13.048Z,0.90
2023-04-27T03:05:39.930Z,1.10
2023-04-27T03:08:06.640Z,0.70
2023-04-27T03:10:33.297Z,1.10
2023-04-27T03:13:00.001Z,0.90
2023-04-27T03:15:28.294Z,0.80
2023-04-27T03:17:55.562Z,0.80
2023-04-27T03:20:22.374Z,1.20
2023-04-27T03:22:49.107Z,0.60
2023-04-27T03:25:15.927Z,0.80
2023-04-27T03:27:43.601Z,0.90
2023-04-27T03:30:12.164Z,0.70
2023-04-27T03:32:39.175Z,0.90
2023-04-27T03:35:06.419Z,0.80
2023-04-27T03:37:34.276Z,0.80
2023-04-27T03:40:01.240Z,0.80
2023-04-27T03:42:29.714Z,1.30
2023-04-27T03:44:56.880Z,1.00
2023-04-27T03:47:23.591Z,0.80
2023-04-27T03:49:50.423Z,1.10
2023-04-27T03:52:17.292Z,0.80
2023-04-27T03:54:44.056Z,0.80
2023-04-27T03:57:11.558Z,0.90
2023-04-27T03:59:38.303Z,0.90
2023-04-27T04:02:05.769Z,0.90
2023-04-27T04:04:32.753Z,0.90
2023-04-27T04:06:59.718Z,1.10
2023-04-27T04:09:26.533Z,0.80
2023-04-27T04:11:54.022Z,0.80
2023-04-27T04:14:20.658Z,0.80
2023-04-27T04:16:47.384Z,0.90
2023-04-27T04:19:14.693Z,1.10
2023-04-27T04:21:41.705Z,1.50
2023-04-27T04:24:08.485Z,1.20
2023-04-27T04:26:35.654Z,1.20
2023-04-27T04:29:02.257Z,1.10
2023-04-27T04:31:29.988Z,1.10
2023-04-27T04:33:56.849Z,1.10
2023-04-27T04:36:24.035Z,0.70
2023-04-27T04:38:54.867Z,0.90
2023-04-27T04:41:21.972Z,1.20
2023-04-27T04:43:49.575Z,1.00
2023-04-27T04:46:17.444Z,1.00
2023-04-27T04:48:44.231Z,1.00
2023-04-27T04:51:11.360Z,0.70
2023-04-27T04:53:38.137Z,1.10
2023-04-27T04:56:12.179Z,1.00
2023-04-27T04:58:39.617Z,1.30
2023-04-27T05:01:06.935Z,1.00
2023-04-27T05:03:33.774Z,0.80
2023-04-27T05:06:01.109Z,0.90
2023-04-27T05:08:27.752Z,1.30
2023-04-27T05:10:55.231Z,1.20
2023-04-27T05:13:22.016Z,1.10
2023-04-27T05:15:48.691Z,1.50
2023-04-27T05:18:15.424Z,1.10
2023-04-27T05:20:42.249Z,0.90
2023-04-27T05:23:09.014Z,0.80
2023-04-27T05:25:41.849Z,0.90
2023-04-27T05:28:11.502Z,1.20
2023-04-27T05:30:38.385Z,1.20
2023-04-27T05:33:06.534Z,1.00
2023-04-27T05:35:33.674Z,1.00
2023-04-27T05:38:01.225Z,1.00
2023-04-27T05:40:28.432Z,0.90
2023-04-27T05:42:55.255Z,1.10
2023-04-27T05:45:21.951Z,0.80
2023-04-27T05:47:48.818Z,1.20
2023-04-27T05:50:15.518Z,0.90
2023-04-27T05:52:42.317Z,1.10
2023-04-27T05:55:09.188Z,0.90
2023-04-27T05:57:35.888Z,0.90
2023-04-27T06:00:08.276Z,1.10
2023-04-27T06:02:39.167Z,0.90
2023-04-27T06:05:07.109Z,0.90
2023-04-27T06:07:33.837Z,1.20
2023-04-27T06:10:00.659Z,1.00
2023-04-27T06:12:27.278Z,1.30
2023-04-27T06:14:53.858Z,1.10
2023-04-27T06:17:22.047Z,0.90
2023-04-27T06:19:48.810Z,0.90
2023-04-27T06:22:15.648Z,1.20
2023-04-27T06:24:42.691Z,1.20
2023-04-27T06:27:09.419Z,1.10
2023-04-27T06:29:36.141Z,0.90
2023-04-27T06:32:06.454Z,0.80
2023-04-27T06:34:36.164Z,1.00
2023-04-27T06:37:02.787Z,0.90
2023-04-27T06:39:29.845Z,1.00
2023-04-27T06:41:56.442Z,0.90
2023-04-27T06:44:25.127Z,0.90
2023-04-27T06:46:51.751Z,1.00
2023-04-27T06:49:18.502Z,0.90
2023-04-27T06:51:46.662Z,0.80
2023-04-27T06:54:13.549Z,1.30
2023-04-27T06:56:40.237Z,0.80
2023-04-27T06:59:07.640Z,0.60
2023-04-27T07:01:34.571Z,0.60
2023-04-27T07:04:01.565Z,0.70
2023-04-27T07:06:28.824Z,0.50
2023-04-27T07:08:55.932Z,0.30
2023-04-27T07:11:23.179Z,1.00
2023-04-27T07:13:49.815Z,1.30
2023-04-27T07:16:17.138Z,1.60
2023-04-27T07:18:44.306Z,3.00
2023-04-27T07:21:11.524Z,2.40
2023-04-27T07:23:40.326Z,0.70
2023-04-27T07:26:08.154Z,0.80
2023-04-27T07:28:38.435Z,1.30
2023-04-27T07:31:06.360Z,0.70
2023-04-27T07:33:34.314Z,0.70
2023-04-27T07:36:02.361Z,0.80
2023-04-27T07:38:31.332Z,0.60
2023-04-27T07:41:02.007Z,0.80
2023-04-27T07:43:28.846Z,0.70
2023-04-27T07:45:58.498Z,0.80
2023-04-27T07:48:25.543Z,0.50
2023-04-27T07:50:52.219Z,0.60
2023-04-27T07:53:19.105Z,0.40
2023-04-27T07:55:45.823Z,0.50
2023-04-27T07:58:13.384Z,0.50
2023-04-27T08:00:40.054Z,0.40
2023-04-27T08:03:08.115Z,0.70
2023-04-27T08:05:35.881Z,0.70
2023-04-27T08:08:02.933Z,0.30
2023-04-27T08:10:29.600Z,0.60
2023-04-27T08:12:56.355Z,0.80
2023-04-27T08:15:22.976Z,1.00
2023-04-27T08:17:49.889Z,0.70
2023-04-27T08:20:16.507Z,0.70
2023-04-27T08:22:43.062Z,0.30
2023-04-27T08:25:09.924Z,0.60
2023-04-27T08:27:40.488Z,0.70
2023-04-27T08:30:07.766Z,0.70
2023-04-27T08:32:34.693Z,0.60
2023-04-27T08:35:01.467Z,0.40
2023-04-27T08:37:28.016Z,0.30
2023-04-27T08:39:54.657Z,0.40
2023-04-27T08:42:21.659Z,0.30
2023-04-27T08:44:48.586Z,0.50
2023-04-27T08:47:15.406Z,0.40
2023-04-27T08:49:42.696Z,0.30
2023-04-27T08:52:16.830Z,0.70
2023-04-27T08:54:44.129Z,0.30
2023-04-27T08:57:12.805Z,0.20
2023-04-27T08:59:40.603Z,0.30
2023-04-27T09:02:18.177Z,0.30
2023-04-27T09:07:17.588Z,0.40
2023-04-27T09:09:45.378Z,0.80
2023-04-27T09:12:16.339Z,0.40
2023-04-27T09:14:43.527Z,0.60
2023-04-27T09:17:10.159Z,0.40
2023-04-27T09:19:36.807Z,0.70
2023-04-27T09:22:05.520Z,0.60
2023-04-27T09:24:32.253Z,0.40
2023-04-27T09:27:00.840Z,0.40
2023-04-27T09:29:35.999Z,0.60
2023-04-27T09:32:03.944Z,0.40
2023-04-27T09:34:43.788Z,0.30
2023-04-27T09:37:11.114Z,0.60
2023-04-27T09:39:38.764Z,0.50
2023-04-27T09:42:05.904Z,0.40
2023-04-27T09:44:33.326Z,0.40
2023-04-27T09:47:01.137Z,0.40
2023-04-27T09:49:29.260Z,0.50
2023-04-27T09:51:58.813Z,0.50
2023-04-27T09:54:34.266Z,0.50
2023-04-27T09:57:12.818Z,0.40
2023-04-27T09:59:54.825Z,0.50
2023-04-27T10:02:25.862Z,0.60
2023-04-27T10:05:44.013Z,0.40
2023-04-27T10:08:11.713Z,0.60
2023-04-27T10:10:50.740Z,0.60
2023-04-27T10:13:26.422Z,0.80
2023-04-27T10:15:54.541Z,0.70
2023-04-27T10:18:31.152Z,0.60
2023-04-27T10:21:09.788Z,0.70
2023-04-27T10:23:46.732Z,0.80
2023-04-27T10:26:13.479Z,0.70
2023-04-27T10:28:41.511Z,1.10
2023-04-27T10:31:12.129Z,1.10
2023-04-27T10:33:46.236Z,0.80
2023-04-27T10:36:16.119Z,0.80
2023-04-27T10:38:42.776Z,0.90
2023-04-27T10:41:14.748Z,0.80
2023-04-27T10:43:41.499Z,0.90
2023-04-27T10:46:10.642Z,0.80
2023-04-27T10:48:41.210Z,1.10
2023-04-27T10:51:08.333Z,1.00
2023-04-27T10:53:36.240Z,0.90
2023-04-27T10:56:06.748Z,1.00
2023-04-27T10:58:47.421Z,1.40
2023-04-27T11:01:24.906Z,1.10
2023-04-27T11:03:57.169Z,1.20
2023-04-27T11:06:23.872Z,1.50
2023-04-27T11:08:50.527Z,1.10
2023-04-27T11:11:20.362Z,1.20
2023-04-27T11:13:49.909Z,1.20
2023-04-27T11:16:16.847Z,0.70
2023-04-27T11:18:43.577Z,0.70
2023-04-27T11:21:13.031Z,0.90
2023-04-27T11:23:40.985Z,0.70
2023-04-27T11:26:22.523Z,1.00
2023-04-27T11:29:05.221Z,0.80
2023-04-27T11:31:49.676Z,0.60
2023-04-27T11:34:19.639Z,0.70
2023-04-27T11:37:17.405Z,0.60
2023-04-27T11:39:46.021Z,0.70
2023-04-27T11:42:18.683Z,1.10
2023-04-27T11:45:00.074Z,1.00
2023-04-27T11:47:29.263Z,1.00
2023-04-27T11:50:07.519Z,1.40
2023-04-27T11:52:38.827Z,1.20
2023-04-27T11:55:09.169Z,1.20
2023-04-27T11:57:36.804Z,1.40
2023-04-27T12:00:12.140Z,1.40
2023-04-27T12:02:44.014Z,1.10
2023-04-27T12:05:13.216Z,1.20
2023-04-27T12:07:41.383Z,1.70
2023-04-27T12:10:09.347Z,1.60
2023-04-27T12:12:36.163Z,2.20
2023-04-27T12:15:03.466Z,2.60
2023-04-27T12:17:30.300Z,2.80
2023-04-27T12:19:57.022Z,2.90
2023-04-27T12:22:23.785Z,2.90
2023-04-27T12:24:51.192Z,3.10
2023-04-27T12:27:17.880Z,2.60
2023-04-27T12:29:44.528Z,2.60
2023-04-27T12:32:11.444Z,3.50
2023-04-27T12:34:39.489Z,4.40
2023-04-27T12:37:06.686Z,3.30
2023-04-27T12:39:33.323Z,3.60
2023-04-27T12:42:00.054Z,3.90
2023-04-27T12:44:27.418Z,3.50
2023-04-27T12:46:54.212Z,3.40
2023-04-27T12:49:21.245Z,3.30
2023-04-27T12:51:51.548Z,3.10
2023-04-27T12:54:18.188Z,3.40
2023-04-27T12:56:45.113Z,2.70
2023-04-27T12:59:11.767Z,3.20
2023-04-27T13:01:38.976Z,3.20
2023-04-27T13:04:07.234Z,3.60
2023-04-27T13:06:34.466Z,2.60
2023-04-27T13:09:01.341Z,3.30
2023-04-27T13:11:28.120Z,3.40
2023-04-27T13:13:55.293Z,3.50
2023-04-27T13:16:25.323Z,3.80
2023-04-27T13:18:53.453Z,3.70
2023-04-27T13:21:20.680Z,4.80
2023-04-27T13:23:48.134Z,5.00
2023-04-27T13:26:16.382Z,4.60
2023-04-27T13:28:43.296Z,4.80
2023-04-27T13:31:11.315Z,4.50
2023-04-27T13:33:42.009Z,4.50
2023-04-27T13:36:12.449Z,3.20
2023-04-27T13:38:39.481Z,4.80
2023-04-27T13:41:06.947Z,4.60
2023-04-27T13:43:33.625Z,4.50
2023-04-27T13:46:01.709Z,4.40
2023-04-27T13:48:29.520Z,4.40
2023-04-27T13:50:56.734Z,4.00
2023-04-27T13:53:27.155Z,4.60
2023-04-27T13:55:55.246Z,4.20
2023-04-27T13:58:23.732Z,3.90
2023-04-27T14:00:52.956Z,3.50
2023-04-27T14:03:20.211Z,4.30
2023-04-27T14:05:49.044Z,4.50
2023-04-27T14:08:15.912Z,4.50
2023-04-27T14:10:42.658Z,3.90
2023-04-27T14:13:09.307Z,4.30
2023-04-27T14:15:37.563Z,3.80
2023-04-27T14:18:09.760Z,3.60
2023-04-27T14:20:37.790Z,4.00
2023-04-27T14:23:05.624Z,3.50
2023-04-27T14:25:35.682Z,3.20
2023-04-27T14:28:04.540Z,3.10
2023-04-27T14:30:32.346Z,3.20
2023-04-27T14:32:59.502Z,3.70
2023-04-27T14:35:26.950Z,2.70
2023-04-27T14:37:54.004Z,2.60
2023-04-27T14:40:20.881Z,2.60
2023-04-27T14:42:47.684Z,3.00
2023-04-27T14:45:15.965Z,2.40
2023-04-27T14:47:42.712Z,3.00
2023-04-27T14:50:11.639Z,2.40
2023-04-27T14:52:39.326Z,2.50
2023-04-27T14:55:07.483Z,2.70
2023-04-27T14:57:34.226Z,2.90
2023-04-27T15:00:01.282Z,2.40
2023-04-27T15:02:28.060Z,2.40
2023-04-27T15:04:54.984Z,2.90
2023-04-27T15:07:22.007Z,3.10
2023-04-27T15:09:48.627Z,3.00
2023-04-27T15:12:15.487Z,2.30
2023-04-27T15:14:42.062Z,2.50
2023-04-27T15:17:08.736Z,2.20
2023-04-27T15:19:35.895Z,2.60
2023-04-27T15:22:02.541Z,2.60
2023-04-27T15:24:29.471Z,2.00
2023-04-27T15:26:56.215Z,2.60
2023-04-27T15:29:22.899Z,2.60
2023-04-27T15:31:49.826Z,2.10
2023-04-27T15:34:16.672Z,2.80
2023-04-27T15:36:43.409Z,2.10
2023-04-27T15:39:10.377Z,2.80
2023-04-27T15:41:37.288Z,2.10
2023-04-27T15:44:04.997Z,2.60
2023-04-27T15:46:31.737Z,2.30
2023-04-27T15:48:58.497Z,2.20
2023-04-27T15:51:25.187Z,2.60
2023-04-27T15:53:51.912Z,2.40
2023-04-27T15:56:18.513Z,2.20
2023-04-27T15:58:45.192Z,2.30
2023-04-27T16:01:11.900Z,3.30
2023-04-27T16:03:38.830Z,3.80
2023-04-27T16:06:06.379Z,2.20
2023-04-27T16:08:33.184Z,2.80
2023-04-27T16:11:00.512Z,3.00
2023-04-27T16:13:28.651Z,3.30
2023-04-27T16:15:55.420Z,2.70
2023-04-27T16:18:22.076Z,2.40
2023-04-27T16:20:48.729Z,3.10
2023-04-27T16:23:15.790Z,2.40
2023-04-27T16:25:42.481Z,2.70
2023-04-27T16:28:09.108Z,2.60
2023-04-27T16:30:37.702Z,2.90
2023-04-27T16:33:04.381Z,3.20
2023-04-27T16:35:31.261Z,2.80
2023-04-27T16:37:57.849Z,3.20
2023-04-27T16:40:24.526Z,3.20
2023-04-27T16:42:52.179Z,3.60
2023-04-27T16:45:19.133Z,4.00
2023-04-27T16:47:45.928Z,3.50
2023-04-27T16:50:12.623Z,3.70
2023-04-27T16:52:39.266Z,3.50
2023-04-27T16:55:06.785Z,3.80
2023-04-27T16:57:33.490Z,3.60
2023-04-27T17:00:01.230Z,3.80
2023-04-27T17:02:28.178Z,3.50
2023-04-27T17:04:54.977Z,3.60
2023-04-27T17:07:21.747Z,3.80
2023-04-27T17:09:48.611Z,3.70
2023-04-27T17:12:16.760Z,3.50
2023-04-27T17:14:43.397Z,3.50
2023-04-27T17:17:10.862Z,3.20
2023-04-27T17:19:37.627Z,3.30
2023-04-27T17:22:04.663Z,3.70
2023-04-27T17:24:31.401Z,3.10
2023-04-27T17:26:58.078Z,3.40
2023-04-27T17:29:24.744Z,3.30
2023-04-27T17:31:51.450Z,2.70
2023-04-27T17:34:18.219Z,2.80
2023-04-27T17:36:46.063Z,2.50
2023-04-27T17:39:13.736Z,3.10
2023-04-27T17:41:41.239Z,2.40
2023-04-27T17:44:08.128Z,2.80
2023-04-27T17:46:34.853Z,2.40
2023-04-27T17:49:01.673Z,2.90
2023-04-27T17:51:28.317Z,2.70
2023-04-27T17:53:54.978Z,2.30
2023-04-27T17:56:21.915Z,2.40
2023-04-27T17:58:48.618Z,2.40
2023-04-27T18:01:15.320Z,2.70
2023-04-27T18:03:42.329Z,3.10
2023-04-27T18:06:09.288Z,2.80
2023-04-27T18:08:35.973Z,3.30
2023-04-27T18:11:02.611Z,3.00
2023-04-27T18:13:29.256Z,2.10
2023-04-27T18:15:55.900Z,2.20
2023-04-27T18:18:25.132Z,2.80
2023-04-27T18:20:52.018Z,3.20
2023-04-27T18:23:18.586Z,3.10
2023-04-27T18:25:46.005Z,4.70
2023-04-27T18:28:12.592Z,4.10
2023-04-27T18:30:39.196Z,4.90
2023-04-27T18:33:06.225Z,4.60
2023-04-27T18:35:32.905Z,4.60
2023-04-27T18:37:59.500Z,4.40
2023-04-27T18:40:26.429Z,4.00
2023-04-27T18:42:53.634Z,7.00
2023-04-27T18:45:20.415Z,6.10
2023-04-27T18:47:47.088Z,5.00
2023-04-27T18:50:13.767Z,4.40
2023-04-27T18:52:40.842Z,5.80
2023-04-27T18:55:08.786Z,4.80
2023-04-27T18:57:35.555Z,4.40
2023-04-27T19:00:05.791Z,3.80
2023-04-27T19:02:33.125Z,4.50
2023-04-27T19:05:11.119Z,5.20
2023-04-27T19:07:38.739Z,2.90
2023-04-27T19:10:06.604Z,3.60
2023-04-27T19:12:33.284Z,2.60
2023-04-27T19:14:59.901Z,2.60
2023-04-27T19:17:26.974Z,2.80
2023-04-27T19:19:53.845Z,2.00
2023-04-27T19:22:20.503Z,2.90
2023-04-27T19:24:47.865Z,3.00
2023-04-27T19:27:14.524Z,1.80
2023-04-27T19:29:58.236Z,2.20
2023-04-27T19:32:27.356Z,2.10
2023-04-27T19:34:56.463Z,2.30
2023-04-27T19:37:27.598Z,1.90
2023-04-27T19:39:54.752Z,2.30
2023-04-27T19:42:21.388Z,2.10
2023-04-27T19:44:47.958Z,1.90
2023-04-27T19:47:14.561Z,2.40
2023-04-27T19:49:41.184Z,2.30
2023-04-27T19:52:07.854Z,2.10
2023-04-27T19:54:38.109Z,2.00
2023-04-27T19:57:04.965Z,2.00
2023-04-27T19:59:31.536Z,1.80
2023-04-27T20:01:58.326Z,1.80
2023-04-27T20:04:25.399Z,1.80
2023-04-27T20:06:52.093Z,1.80
2023-04-27T20:09:18.727Z,1.40
2023-04-27T20:11:45.429Z,1.40
2023-04-27T20:14:12.856Z,1.50
2023-04-27T20:16:39.698Z,1.30
2023-04-27T20:19:06.489Z,1.60
2023-04-27T20:21:33.745Z,1.40
2023-04-27T20:24:00.564Z,1.50
2023-04-27T20:26:27.513Z,1.60
2023-04-27T20:28:54.151Z,1.10
2023-04-27T20:31:21.283Z,1.20
2023-04-27T20:33:48.002Z,1.40
2023-04-27T20:36:18.185Z,1.20
2023-04-27T20:38:46.166Z,1.50
2023-04-27T20:41:12.860Z,1.50
2023-04-27T20:43:40.256Z,1.60
2023-04-27T20:46:07.866Z,1.60
2023-04-27T20:48:34.675Z,1.90
2023-04-27T20:51:01.618Z,1.60
2023-04-27T20:53:28.332Z,1.80
2023-04-27T20:55:55.013Z,1.50
2023-04-27T20:58:21.674Z,1.80
2023-04-27T21:00:48.348Z,1.60
2023-04-27T21:03:15.039Z,1.40
2023-04-27T21:05:41.782Z,1.30
2023-04-27T21:08:08.463Z,1.90
2023-04-27T21:10:35.615Z,1.60
2023-04-27T21:13:04.148Z,1.50
2023-04-27T21:15:31.090Z,1.60
2023-04-27T21:17:57.835Z,1.30
2023-04-27T21:20:24.522Z,1.50
2023-04-27T21:22:51.081Z,1.30
2023-04-27T21:25:18.176Z,1.50
2023-04-27T21:27:45.044Z,1.40
2023-04-27T21:30:12.237Z,1.50
2023-04-27T21:32:39.566Z,1.60
2023-04-27T21:35:07.911Z,1.30
2023-04-27T21:37:35.514Z,1.50
2023-04-27T21:40:02.167Z,1.60
2023-04-27T21:42:28.774Z,1.40
2023-04-27T21:44:56.969Z,1.90
2023-04-27T21:47:23.749Z,1.60
2023-04-27T21:49:52.493Z,1.60
2023-04-27T21:52:21.466Z,1.60
2023-04-27T21:54:48.477Z,1.40
2023-04-27T21:57:20.999Z,1.30
2023-04-27T21:59:47.596Z,1.20
2023-04-27T22:02:14.215Z,1.50
2023-04-27T22:04:40.881Z,1.60
2023-04-27T22:07:10.504Z,1.30
2023-04-27T22:09:37.194Z,1.30
2023-04-27T22:12:04.586Z,1.50
2023-04-27T22:14:31.525Z,1.20
2023-04-27T22:16:58.563Z,1.00
2023-04-27T22:19:25.349Z,1.20
2023-04-27T22:21:52.081Z,1.20
2023-04-27T22:24:18.844Z,1.50
2023-04-27T22:26:48.361Z,1.10
2023-04-27T22:29:15.972Z,1.40
2023-04-27T22:31:43.756Z,1.40
2023-04-27T22:34:13.068Z,1.50
2023-04-27T22:36:40.754Z,1.50
2023-04-27T22:39:07.482Z,1.50
2023-04-27T22:41:34.073Z,1.70
2023-04-27T22:44:01.000Z,1.70
2023-04-27T22:46:27.666Z,1.70
2023-04-27T22:48:54.534Z,1.60
2023-04-27T22:51:21.901Z,1.50
2023-04-27T22:53:49.012Z,1.60
2023-04-27T22:56:15.953Z,1.80
2023-04-27T22:58:42.533Z,2.10
2023-04-27T23:01:09.220Z,1.70
2023-04-27T23:03:36.207Z,1.80
2023-04-27T23:06:03.104Z,1.90
2023-04-27T23:08:29.683Z,1.90
2023-04-27T23:10:56.916Z,2.10
2023-04-27T23:13:27.496Z,2.00
2023-04-27T23:15:57.126Z,2.30
2023-04-27T23:18:23.788Z,1.90
2023-04-27T23:20:56.867Z,2.20
2023-04-27T23:23:23.563Z,2.20
2023-04-27T23:25:50.198Z,2.80
2023-04-27T23:28:16.912Z,2.70
2023-04-27T23:30:43.564Z,2.50
2023-04-27T23:33:10.240Z,2.30
2023-04-27T23:35:36.889Z,2.70
2023-04-27T23:38:03.539Z,2.70
2023-04-27T23:40:30.108Z,2.50
2023-04-27T23:42:57.280Z,2.70
2023-04-27T23:45:23.928Z,2.90
2023-04-27T23:47:50.828Z,3.50
2023-04-27T23:50:17.532Z,3.30
2023-04-27T23:52:45.229Z,3.60
2023-04-27T23:55:12.052Z,3.30
2023-04-27T23:57:38.699Z,3.40
